sensor_id;sensor_type;location;lat;lon;timestamp;pressure;altitude;pressure_sealevel;temperature;humidity
70921;BME280;58572;48.110;19.838;2023-07-31T00:02:04;97439.88;;;20.97;77.33
70921;BME280;58572;48.110;19.838;2023-07-31T00:04:31;97441.47;;;20.98;76.89
70921;BME280;58572;48.110;19.838;2023-07-31T00:06:58;97443.50;;;20.82;78.22
70921;BME280;58572;48.110;19.838;2023-07-31T00:09:26;97443.81;;;20.96;77.26
70921;BME280;58572;48.110;19.838;2023-07-31T00:11:53;97454.84;;;20.96;77.10
70921;BME280;58572;48.110;19.838;2023-07-31T00:14:20;97452.25;;;21.03;76.86
70921;BME280;58572;48.110;19.838;2023-07-31T00:16:47;97459.50;;;20.92;77.26
70921;BME280;58572;48.110;19.838;2023-07-31T00:19:15;97454.50;;;20.98;77.15
70921;BME280;58572;48.110;19.838;2023-07-31T00:21:43;97449.63;;;20.91;77.56
70921;BME280;58572;48.110;19.838;2023-07-31T00:24:11;97452.59;;;21.02;77.12
70921;BME280;58572;48.110;19.838;2023-07-31T00:26:38;97456.03;;;20.95;77.09
70921;BME280;58572;48.110;19.838;2023-07-31T00:29:05;97450.94;;;20.97;77.08
70921;BME280;58572;48.110;19.838;2023-07-31T00:31:32;97459.38;;;21.04;77.09
70921;BME280;58572;48.110;19.838;2023-07-31T00:33:59;97457.41;;;20.70;78.37
70921;BME280;58572;48.110;19.838;2023-07-31T00:36:28;97455.16;;;20.76;77.83
70921;BME280;58572;48.110;19.838;2023-07-31T00:38:55;97460.31;;;20.93;77.20
70921;BME280;58572;48.110;19.838;2023-07-31T00:41:22;97462.47;;;20.84;77.66
70921;BME280;58572;48.110;19.838;2023-07-31T00:43:49;97434.56;;;20.73;77.53
70921;BME280;58572;48.110;19.838;2023-07-31T00:46:17;97452.28;;;20.88;77.16
70921;BME280;58572;48.110;19.838;2023-07-31T00:48:44;97449.63;;;20.91;77.11
70921;BME280;58572;48.110;19.838;2023-07-31T00:51:11;97460.59;;;20.72;77.80
70921;BME280;58572;48.110;19.838;2023-07-31T00:53:40;97458.47;;;20.81;77.68
70921;BME280;58572;48.110;19.838;2023-07-31T00:56:07;97455.72;;;20.81;77.20
70921;BME280;58572;48.110;19.838;2023-07-31T00:58:35;97453.75;;;20.82;77.31
70921;BME280;58572;48.110;19.838;2023-07-31T01:01:02;97451.94;;;20.73;77.57
70921;BME280;58572;48.110;19.838;2023-07-31T01:03:29;97447.88;;;20.67;77.56
70921;BME280;58572;48.110;19.838;2023-07-31T01:06:03;97450.44;;;20.76;76.94
70921;BME280;58572;48.110;19.838;2023-07-31T01:08:38;97447.41;;;20.81;76.93
70921;BME280;58572;48.110;19.838;2023-07-31T01:11:14;97449.84;;;20.67;77.59
70921;BME280;58572;48.110;19.838;2023-07-31T01:13:42;97446.66;;;20.49;78.39
70921;BME280;58572;48.110;19.838;2023-07-31T01:16:11;97443.28;;;20.40;78.57
70921;BME280;58572;48.110;19.838;2023-07-31T01:18:38;97447.09;;;20.04;79.82
70921;BME280;58572;48.110;19.838;2023-07-31T01:21:18;97445.50;;;20.03;80.10
70921;BME280;58572;48.110;19.838;2023-07-31T01:26:45;97444.69;;;20.18;78.67
70921;BME280;58572;48.110;19.838;2023-07-31T01:29:19;97416.41;;;20.05;78.59
70921;BME280;58572;48.110;19.838;2023-07-31T01:31:50;97452.63;;;20.35;77.94
70921;BME280;58572;48.110;19.838;2023-07-31T01:34:21;97446.31;;;19.88;80.45
70921;BME280;58572;48.110;19.838;2023-07-31T01:36:49;97440.78;;;19.88;80.05
70921;BME280;58572;48.110;19.838;2023-07-31T01:39:16;97439.53;;;20.01;79.21
70921;BME280;58572;48.110;19.838;2023-07-31T01:41:45;97406.84;;;19.71;79.06
70921;BME280;58572;48.110;19.838;2023-07-31T01:44:12;97439.09;;;19.99;79.35
70921;BME280;58572;48.110;19.838;2023-07-31T01:46:39;97399.34;;;19.56;79.61
70921;BME280;58572;48.110;19.838;2023-07-31T01:49:06;97447.81;;;20.01;79.19
70921;BME280;58572;48.110;19.838;2023-07-31T01:51:34;97441.56;;;20.35;77.36
70921;BME280;58572;48.110;19.838;2023-07-31T01:54:01;97445.69;;;20.42;76.49
70921;BME280;58572;48.110;19.838;2023-07-31T01:56:28;97443.88;;;20.33;75.74
70921;BME280;58572;48.110;19.838;2023-07-31T01:58:57;97443.16;;;20.36;76.74
70921;BME280;58572;48.110;19.838;2023-07-31T02:01:24;97447.09;;;20.35;76.39
70921;BME280;58572;48.110;19.838;2023-07-31T02:03:51;97447.38;;;20.15;77.27
70921;BME280;58572;48.110;19.838;2023-07-31T02:06:19;97448.09;;;20.27;76.35
70921;BME280;58572;48.110;19.838;2023-07-31T02:08:48;97447.47;;;20.18;75.24
70921;BME280;58572;48.110;19.838;2023-07-31T02:11:15;97449.78;;;20.16;77.01
70921;BME280;58572;48.110;19.838;2023-07-31T02:13:42;97442.31;;;20.01;77.45
70921;BME280;58572;48.110;19.838;2023-07-31T02:16:10;97442.75;;;20.03;77.14
70921;BME280;58572;48.110;19.838;2023-07-31T02:18:38;97444.09;;;20.09;76.79
70921;BME280;58572;48.110;19.838;2023-07-31T02:21:05;97454.94;;;20.02;76.60
70921;BME280;58572;48.110;19.838;2023-07-31T02:23:32;97455.13;;;20.09;76.55
70921;BME280;58572;48.110;19.838;2023-07-31T02:25:59;97450.31;;;20.06;76.47
70921;BME280;58572;48.110;19.838;2023-07-31T02:28:26;97455.13;;;20.09;76.22
70921;BME280;58572;48.110;19.838;2023-07-31T02:30:54;97451.19;;;19.79;76.69
70921;BME280;58572;48.110;19.838;2023-07-31T02:33:22;97450.06;;;19.67;78.25
70921;BME280;58572;48.110;19.838;2023-07-31T02:35:49;97444.38;;;19.60;78.61
70921;BME280;58572;48.110;19.838;2023-07-31T02:38:16;97456.75;;;19.66;78.20
70921;BME280;58572;48.110;19.838;2023-07-31T02:40:44;97458.78;;;19.41;79.13
70921;BME280;58572;48.110;19.838;2023-07-31T02:43:11;97453.53;;;19.64;77.89
70921;BME280;58572;48.110;19.838;2023-07-31T02:45:38;97460.25;;;19.51;78.36
70921;BME280;58572;48.110;19.838;2023-07-31T02:48:06;97462.91;;;19.48;78.50
70921;BME280;58572;48.110;19.838;2023-07-31T02:50:35;97462.25;;;19.66;77.83
70921;BME280;58572;48.110;19.838;2023-07-31T02:53:02;97460.63;;;19.77;77.00
70921;BME280;58572;48.110;19.838;2023-07-31T02:55:29;97456.69;;;19.79;76.69
70921;BME280;58572;48.110;19.838;2023-07-31T02:57:56;97465.72;;;19.63;76.95
70921;BME280;58572;48.110;19.838;2023-07-31T03:00:24;97468.97;;;19.25;79.25
70921;BME280;58572;48.110;19.838;2023-07-31T03:02:51;97472.19;;;18.63;80.88
70921;BME280;58572;48.110;19.838;2023-07-31T03:05:18;97457.06;;;19.09;79.64
70921;BME280;58572;48.110;19.838;2023-07-31T03:07:47;97459.91;;;18.85;81.23
70921;BME280;58572;48.110;19.838;2023-07-31T03:10:14;97462.53;;;18.57;81.96
70921;BME280;58572;48.110;19.838;2023-07-31T03:12:41;97476.66;;;17.52;86.56
70921;BME280;58572;48.110;19.838;2023-07-31T03:15:09;97474.59;;;18.64;82.49
70921;BME280;58572;48.110;19.838;2023-07-31T03:17:36;97473.44;;;18.77;80.42
70921;BME280;58572;48.110;19.838;2023-07-31T03:20:04;97472.84;;;17.99;85.11
70921;BME280;58572;48.110;19.838;2023-07-31T03:22:31;97475.41;;;19.17;79.93
70921;BME280;58572;48.110;19.838;2023-07-31T03:25:02;97480.22;;;18.68;82.09
70921;BME280;58572;48.110;19.838;2023-07-31T03:27:29;97479.44;;;17.73;86.28
70921;BME280;58572;48.110;19.838;2023-07-31T03:29:56;97472.66;;;17.50;86.97
70921;BME280;58572;48.110;19.838;2023-07-31T03:32:23;97474.34;;;17.42;87.35
70921;BME280;58572;48.110;19.838;2023-07-31T03:34:50;97472.81;;;17.86;85.35
70921;BME280;58572;48.110;19.838;2023-07-31T03:37:17;97472.84;;;18.35;82.94
70921;BME280;58572;48.110;19.838;2023-07-31T03:39:44;97470.31;;;18.06;84.57
70921;BME280;58572;48.110;19.838;2023-07-31T03:42:13;97467.13;;;18.65;81.43
70921;BME280;58572;48.110;19.838;2023-07-31T03:44:40;97468.84;;;19.22;78.39
70921;BME280;58572;48.110;19.838;2023-07-31T03:47:07;97469.19;;;18.19;82.63
70921;BME280;58572;48.110;19.838;2023-07-31T03:49:35;97477.44;;;18.68;81.49
70921;BME280;58572;48.110;19.838;2023-07-31T03:52:02;97478.69;;;18.95;79.79
70921;BME280;58572;48.110;19.838;2023-07-31T03:54:29;97471.59;;;18.69;81.07
70921;BME280;58572;48.110;19.838;2023-07-31T03:56:56;97426.97;;;18.51;79.79
70921;BME280;58572;48.110;19.838;2023-07-31T03:59:25;97492.09;;;19.08;79.17
70921;BME280;58572;48.110;19.838;2023-07-31T04:01:52;97494.47;;;19.50;77.02
70921;BME280;58572;48.110;19.838;2023-07-31T04:04:20;97490.56;;;19.51;77.09
70921;BME280;58572;48.110;19.838;2023-07-31T04:06:47;97485.03;;;19.23;78.13
70921;BME280;58572;48.110;19.838;2023-07-31T04:09:14;97432.00;;;18.86;78.23
70921;BME280;58572;48.110;19.838;2023-07-31T04:11:41;97480.13;;;19.44;76.91
70921;BME280;58572;48.110;19.838;2023-07-31T04:14:09;97464.59;;;19.24;77.23
70921;BME280;58572;48.110;19.838;2023-07-31T04:16:37;97475.88;;;19.47;77.16
70921;BME280;58572;48.110;19.838;2023-07-31T04:19:04;97487.06;;;19.66;76.05
70921;BME280;58572;48.110;19.838;2023-07-31T04:21:31;97479.44;;;19.48;77.21
70921;BME280;58572;48.110;19.838;2023-07-31T04:23:58;97481.00;;;19.61;76.85
70921;BME280;58572;48.110;19.838;2023-07-31T04:26:26;97479.22;;;19.81;76.14
70921;BME280;58572;48.110;19.838;2023-07-31T04:28:53;97487.19;;;19.70;76.46
70921;BME280;58572;48.110;19.838;2023-07-31T04:31:20;97489.53;;;19.84;75.76
70921;BME280;58572;48.110;19.838;2023-07-31T04:33:49;97479.22;;;19.81;75.74
70921;BME280;58572;48.110;19.838;2023-07-31T04:36:16;97457.03;;;19.49;76.41
70921;BME280;58572;48.110;19.838;2023-07-31T04:38:43;97476.47;;;19.81;75.97
70921;BME280;58572;48.110;19.838;2023-07-31T04:41:10;97470.38;;;19.75;76.23
70921;BME280;58572;48.110;19.838;2023-07-31T04:43:37;97474.56;;;19.29;78.42
70921;BME280;58572;48.110;19.838;2023-07-31T04:46:05;97469.81;;;19.69;76.36
70921;BME280;58572;48.110;19.838;2023-07-31T04:48:32;97474.53;;;19.69;77.33
70921;BME280;58572;48.110;19.838;2023-07-31T04:51:01;97464.72;;;19.84;75.91
70921;BME280;58572;48.110;19.838;2023-07-31T04:53:28;97465.91;;;19.70;77.28
70921;BME280;58572;48.110;19.838;2023-07-31T04:55:55;97474.06;;;19.39;79.56
70921;BME280;58572;48.110;19.838;2023-07-31T04:58:23;97473.22;;;19.51;77.32
70921;BME280;58572;48.110;19.838;2023-07-31T05:00:50;97475.22;;;19.94;75.38
70921;BME280;58572;48.110;19.838;2023-07-31T05:03:17;97469.91;;;20.01;75.29
70921;BME280;58572;48.110;19.838;2023-07-31T05:05:44;97475.84;;;20.03;75.11
70921;BME280;58572;48.110;19.838;2023-07-31T05:08:13;97467.94;;;19.86;76.00
70921;BME280;58572;48.110;19.838;2023-07-31T05:10:40;97465.81;;;20.26;74.52
70921;BME280;58572;48.110;19.838;2023-07-31T05:13:07;97468.91;;;20.25;74.40
70921;BME280;58572;48.110;19.838;2023-07-31T05:15:34;97457.97;;;19.97;75.89
70921;BME280;58572;48.110;19.838;2023-07-31T05:18:01;97461.00;;;19.92;75.86
70921;BME280;58572;48.110;19.838;2023-07-31T05:20:28;97462.59;;;19.93;76.47
70921;BME280;58572;48.110;19.838;2023-07-31T05:22:55;97456.91;;;20.17;75.37
70921;BME280;58572;48.110;19.838;2023-07-31T05:25:24;97458.59;;;20.22;74.93
70921;BME280;58572;48.110;19.838;2023-07-31T05:27:51;97466.34;;;20.48;73.83
70921;BME280;58572;48.110;19.838;2023-07-31T05:30:18;97464.56;;;20.39;74.38
70921;BME280;58572;48.110;19.838;2023-07-31T05:32:46;97467.06;;;20.45;73.74
70921;BME280;58572;48.110;19.838;2023-07-31T05:35:14;97475.34;;;20.13;77.46
70921;BME280;58572;48.110;19.838;2023-07-31T05:37:41;97479.41;;;20.35;74.37
70921;BME280;58572;48.110;19.838;2023-07-31T05:40:08;97480.94;;;20.32;75.79
70921;BME280;58572;48.110;19.838;2023-07-31T05:42:37;97466.94;;;20.72;73.33
70921;BME280;58572;48.110;19.838;2023-07-31T05:45:05;97473.09;;;20.66;73.58
70921;BME280;58572;48.110;19.838;2023-07-31T05:47:33;97481.47;;;19.91;77.84
70921;BME280;58572;48.110;19.838;2023-07-31T05:50:00;97473.13;;;19.47;81.93
70921;BME280;58572;48.110;19.838;2023-07-31T05:52:27;97474.91;;;20.43;75.63
70921;BME280;58572;48.110;19.838;2023-07-31T05:54:55;97478.28;;;20.52;76.34
70921;BME280;58572;48.110;19.838;2023-07-31T05:57:22;97481.09;;;20.71;74.82
70921;BME280;58572;48.110;19.838;2023-07-31T05:59:51;97464.75;;;20.47;76.48
70921;BME280;58572;48.110;19.838;2023-07-31T06:02:19;97481.47;;;20.22;76.65
70921;BME280;58572;48.110;19.838;2023-07-31T06:04:46;97474.00;;;20.07;78.56
70921;BME280;58572;48.110;19.838;2023-07-31T06:07:13;97477.84;;;20.50;75.65
70921;BME280;58572;48.110;19.838;2023-07-31T06:09:40;97482.44;;;20.61;75.16
70921;BME280;58572;48.110;19.838;2023-07-31T06:12:07;97479.06;;;20.68;74.47
70921;BME280;58572;48.110;19.838;2023-07-31T06:14:35;97485.66;;;20.32;76.52
70921;BME280;58572;48.110;19.838;2023-07-31T06:17:04;97485.66;;;20.63;74.91
70921;BME280;58572;48.110;19.838;2023-07-31T06:19:31;97482.69;;;20.88;74.07
70921;BME280;58572;48.110;19.838;2023-07-31T06:21:58;97482.81;;;21.11;73.00
70921;BME280;58572;48.110;19.838;2023-07-31T06:24:27;97485.91;;;20.74;74.62
70921;BME280;58572;48.110;19.838;2023-07-31T06:27:00;97488.84;;;20.81;74.94
70921;BME280;58572;48.110;19.838;2023-07-31T06:29:30;97491.16;;;20.00;78.18
70921;BME280;58572;48.110;19.838;2023-07-31T06:31:57;97492.16;;;20.71;75.41
70921;BME280;58572;48.110;19.838;2023-07-31T06:34:25;97503.69;;;19.42;81.68
70921;BME280;58572;48.110;19.838;2023-07-31T06:36:52;97495.69;;;19.37;82.55
70921;BME280;58572;48.110;19.838;2023-07-31T06:39:19;97496.22;;;19.83;79.66
70921;BME280;58572;48.110;19.838;2023-07-31T06:41:46;97490.63;;;19.95;80.29
70921;BME280;58572;48.110;19.838;2023-07-31T06:44:14;97495.63;;;20.36;79.05
70921;BME280;58572;48.110;19.838;2023-07-31T06:46:42;97493.31;;;20.23;78.25
70921;BME280;58572;48.110;19.838;2023-07-31T06:49:09;97488.75;;;20.93;75.18
70921;BME280;58572;48.110;19.838;2023-07-31T06:51:37;97467.94;;;20.49;76.36
70921;BME280;58572;48.110;19.838;2023-07-31T06:54:05;97487.34;;;20.68;78.63
70921;BME280;58572;48.110;19.838;2023-07-31T06:56:32;97485.38;;;20.84;78.09
70921;BME280;58572;48.110;19.838;2023-07-31T06:58:59;97483.41;;;21.20;74.55
70921;BME280;58572;48.110;19.838;2023-07-31T07:01:26;97496.53;;;21.23;74.88
70921;BME280;58572;48.110;19.838;2023-07-31T07:03:53;97501.47;;;20.98;76.90
70921;BME280;58572;48.110;19.838;2023-07-31T07:06:21;97496.06;;;21.21;75.46
70921;BME280;58572;48.110;19.838;2023-07-31T07:08:50;97496.53;;;21.61;74.50
70921;BME280;58572;48.110;19.838;2023-07-31T07:11:17;97500.59;;;21.48;75.20
70921;BME280;58572;48.110;19.838;2023-07-31T07:13:44;97502.75;;;20.22;80.22
70921;BME280;58572;48.110;19.838;2023-07-31T07:16:11;97504.75;;;21.03;76.87
70921;BME280;58572;48.110;19.838;2023-07-31T07:18:38;97503.09;;;20.99;77.60
70921;BME280;58572;48.110;19.838;2023-07-31T07:21:05;97491.78;;;20.88;77.82
70921;BME280;58572;48.110;19.838;2023-07-31T07:23:32;97500.25;;;20.95;77.50
70921;BME280;58572;48.110;19.838;2023-07-31T07:26:01;97507.13;;;20.07;80.34
70921;BME280;58572;48.110;19.838;2023-07-31T07:28:28;97497.75;;;20.75;78.17
70921;BME280;58572;48.110;19.838;2023-07-31T07:30:55;97496.00;;;20.66;78.37
70921;BME280;58572;48.110;19.838;2023-07-31T07:33:23;97502.06;;;20.40;78.98
70921;BME280;58572;48.110;19.838;2023-07-31T07:35:50;97501.94;;;21.19;76.37
70921;BME280;58572;48.110;19.838;2023-07-31T07:38:17;97503.81;;;21.31;75.62
70921;BME280;58572;48.110;19.838;2023-07-31T07:40:44;97501.41;;;21.49;75.23
70921;BME280;58572;48.110;19.838;2023-07-31T07:43:13;97497.31;;;21.62;73.98
70921;BME280;58572;48.110;19.838;2023-07-31T07:45:40;97500.16;;;21.85;73.42
70921;BME280;58572;48.110;19.838;2023-07-31T07:48:07;97505.25;;;21.63;74.04
70921;BME280;58572;48.110;19.838;2023-07-31T07:50:35;97504.69;;;21.00;76.62
70921;BME280;58572;48.110;19.838;2023-07-31T07:53:02;97502.34;;;21.37;74.90
70921;BME280;58572;48.110;19.838;2023-07-31T07:55:29;97506.25;;;20.66;76.64
70921;BME280;58572;48.110;19.838;2023-07-31T07:57:57;97502.63;;;21.51;75.55
70921;BME280;58572;48.110;19.838;2023-07-31T08:00:25;97491.53;;;22.09;72.61
70921;BME280;58572;48.110;19.838;2023-07-31T08:02:52;97501.97;;;20.53;76.38
70921;BME280;58572;48.110;19.838;2023-07-31T08:05:19;97497.31;;;20.88;77.59
70921;BME280;58572;48.110;19.838;2023-07-31T08:07:46;97501.31;;;20.91;76.99
70921;BME280;58572;48.110;19.838;2023-07-31T08:10:14;97499.91;;;22.13;73.27
70921;BME280;58572;48.110;19.838;2023-07-31T08:12:41;97503.38;;;22.29;72.28
70921;BME280;58572;48.110;19.838;2023-07-31T08:15:08;97505.94;;;21.22;72.50
70921;BME280;58572;48.110;19.838;2023-07-31T08:17:37;97507.97;;;22.21;71.29
70921;BME280;58572;48.110;19.838;2023-07-31T08:20:05;97517.50;;;21.08;75.27
70921;BME280;58572;48.110;19.838;2023-07-31T08:22:33;97517.84;;;21.99;73.94
70921;BME280;58572;48.110;19.838;2023-07-31T08:25:00;97520.69;;;22.03;72.87
70921;BME280;58572;48.110;19.838;2023-07-31T08:27:28;97510.31;;;22.19;71.87
70921;BME280;58572;48.110;19.838;2023-07-31T08:29:55;97525.50;;;21.48;74.16
70921;BME280;58572;48.110;19.838;2023-07-31T08:32:23;97519.66;;;22.11;72.78
70921;BME280;58572;48.110;19.838;2023-07-31T08:34:51;97522.19;;;20.88;73.74
70921;BME280;58572;48.110;19.838;2023-07-31T08:37:18;97518.00;;;21.68;74.25
70921;BME280;58572;48.110;19.838;2023-07-31T08:39:45;97527.53;;;21.51;74.06
70921;BME280;58572;48.110;19.838;2023-07-31T08:42:13;97520.59;;;22.19;72.38
70921;BME280;58572;48.110;19.838;2023-07-31T08:44:40;97526.91;;;22.65;71.78
70921;BME280;58572;48.110;19.838;2023-07-31T08:47:08;97521.59;;;22.79;70.28
70921;BME280;58572;48.110;19.838;2023-07-31T08:49:37;97522.94;;;23.12;70.34
70921;BME280;58572;48.110;19.838;2023-07-31T08:52:07;97528.88;;;22.87;70.44
70921;BME280;58572;48.110;19.838;2023-07-31T08:54:34;97529.66;;;22.39;71.27
70921;BME280;58572;48.110;19.838;2023-07-31T08:57:02;97523.16;;;22.08;71.15
70921;BME280;58572;48.110;19.838;2023-07-31T08:59:31;97517.53;;;23.52;67.53
70921;BME280;58572;48.110;19.838;2023-07-31T09:02:03;97522.72;;;22.98;70.32
70921;BME280;58572;48.110;19.838;2023-07-31T09:04:32;97517.59;;;23.26;68.50
70921;BME280;58572;48.110;19.838;2023-07-31T09:06:59;97515.28;;;23.62;68.13
70921;BME280;58572;48.110;19.838;2023-07-31T09:09:28;97527.09;;;23.25;68.01
70921;BME280;58572;48.110;19.838;2023-07-31T09:11:56;97524.81;;;23.61;68.34
70921;BME280;58572;48.110;19.838;2023-07-31T09:14:25;97520.59;;;23.74;68.59
70921;BME280;58572;48.110;19.838;2023-07-31T09:16:53;97528.16;;;22.90;69.98
70921;BME280;58572;48.110;19.838;2023-07-31T09:19:29;97531.03;;;21.87;70.56
70921;BME280;58572;48.110;19.838;2023-07-31T09:21:56;97521.13;;;22.97;68.38
70921;BME280;58572;48.110;19.838;2023-07-31T09:24:29;97521.00;;;23.76;66.86
70921;BME280;58572;48.110;19.838;2023-07-31T09:26:58;97514.75;;;24.60;64.29
70921;BME280;58572;48.110;19.838;2023-07-31T09:29:26;97488.13;;;23.78;65.65
70921;BME280;58572;48.110;19.838;2023-07-31T09:31:54;97507.25;;;24.24;65.41
70921;BME280;58572;48.110;19.838;2023-07-31T09:34:30;97464.09;;;24.30;63.71
70921;BME280;58572;48.110;19.838;2023-07-31T09:37:04;97493.66;;;25.00;61.25
70921;BME280;58572;48.110;19.838;2023-07-31T09:39:45;97511.00;;;24.38;63.93
70921;BME280;58572;48.110;19.838;2023-07-31T09:42:13;97518.13;;;24.36;65.09
70921;BME280;58572;48.110;19.838;2023-07-31T09:44:40;97512.53;;;23.95;65.22
70921;BME280;58572;48.110;19.838;2023-07-31T09:47:21;97510.34;;;25.00;63.31
70921;BME280;58572;48.110;19.838;2023-07-31T09:49:49;97502.91;;;25.18;62.45
70921;BME280;58572;48.110;19.838;2023-07-31T09:52:16;97512.06;;;24.71;62.96
70921;BME280;58572;48.110;19.838;2023-07-31T09:54:45;97501.59;;;24.98;58.62
70921;BME280;58572;48.110;19.838;2023-07-31T09:57:12;97494.44;;;25.76;61.17
70921;BME280;58572;48.110;19.838;2023-07-31T09:59:42;97496.06;;;25.88;61.47
70921;BME280;58572;48.110;19.838;2023-07-31T10:02:14;97489.19;;;25.61;61.46
70921;BME280;58572;48.110;19.838;2023-07-31T10:04:43;97496.34;;;25.62;61.22
70921;BME280;58572;48.110;19.838;2023-07-31T10:07:13;97500.28;;;24.88;61.43
70921;BME280;58572;48.110;19.838;2023-07-31T10:09:41;97500.16;;;24.70;60.70
70921;BME280;58572;48.110;19.838;2023-07-31T10:12:12;97496.13;;;23.53;65.71
70921;BME280;58572;48.110;19.838;2023-07-31T10:14:42;97476.44;;;23.95;65.42
70921;BME280;58572;48.110;19.838;2023-07-31T10:17:09;97496.97;;;24.68;63.14
70921;BME280;58572;48.110;19.838;2023-07-31T10:19:37;97503.44;;;23.98;66.23
70921;BME280;58572;48.110;19.838;2023-07-31T10:22:05;97500.75;;;24.05;63.29
70921;BME280;58572;48.110;19.838;2023-07-31T10:24:34;97490.91;;;25.07;62.10
70921;BME280;58572;48.110;19.838;2023-07-31T10:27:02;97497.28;;;23.82;65.81
70921;BME280;58572;48.110;19.838;2023-07-31T10:29:32;97493.03;;;25.31;62.53
70921;BME280;58572;48.110;19.838;2023-07-31T10:32:00;97485.41;;;25.18;60.10
70921;BME280;58572;48.110;19.838;2023-07-31T10:34:28;97491.00;;;25.21;61.44
70921;BME280;58572;48.110;19.838;2023-07-31T10:37:23;97497.25;;;24.15;63.76
70921;BME280;58572;48.110;19.838;2023-07-31T10:39:58;97493.81;;;24.73;62.84
70921;BME280;58572;48.110;19.838;2023-07-31T10:42:33;97489.22;;;23.40;60.28
70921;BME280;58572;48.110;19.838;2023-07-31T10:45:04;97487.69;;;24.09;60.89
70921;BME280;58572;48.110;19.838;2023-07-31T10:47:36;97484.31;;;25.36;57.46
70921;BME280;58572;48.110;19.838;2023-07-31T10:50:21;97482.44;;;24.41;57.24
70921;BME280;58572;48.110;19.838;2023-07-31T10:52:50;97487.31;;;24.55;56.36
70921;BME280;58572;48.110;19.838;2023-07-31T10:55:28;97483.00;;;24.17;59.72
70921;BME280;58572;48.110;19.838;2023-07-31T10:57:57;97479.66;;;25.62;56.68
70921;BME280;58572;48.110;19.838;2023-07-31T11:00:28;97473.00;;;25.88;56.90
70921;BME280;58572;48.110;19.838;2023-07-31T11:02:59;97477.06;;;26.26;56.59
70921;BME280;58572;48.110;19.838;2023-07-31T11:05:49;97467.88;;;27.18;55.30
70921;BME280;58572;48.110;19.838;2023-07-31T11:08:20;97474.59;;;25.99;56.84
70921;BME280;58572;48.110;19.838;2023-07-31T11:10:49;97468.50;;;25.62;56.50
70921;BME280;58572;48.110;19.838;2023-07-31T11:13:17;97468.03;;;24.80;56.98
70921;BME280;58572;48.110;19.838;2023-07-31T11:15:46;97458.94;;;24.87;54.88
70921;BME280;58572;48.110;19.838;2023-07-31T11:18:13;97462.31;;;26.18;56.59
70921;BME280;58572;48.110;19.838;2023-07-31T11:20:40;97457.19;;;26.42;56.10
70921;BME280;58572;48.110;19.838;2023-07-31T11:23:09;97407.75;;;25.99;56.65
70921;BME280;58572;48.110;19.838;2023-07-31T11:25:37;97457.09;;;27.30;55.15
70921;BME280;58572;48.110;19.838;2023-07-31T11:28:07;97417.97;;;27.38;53.84
70921;BME280;58572;48.110;19.838;2023-07-31T11:30:34;97450.38;;;26.85;55.73
70921;BME280;58572;48.110;19.838;2023-07-31T11:33:05;97448.38;;;27.11;55.82
70921;BME280;58572;48.110;19.838;2023-07-31T11:35:33;97448.22;;;27.53;55.22
70921;BME280;58572;48.110;19.838;2023-07-31T11:38:00;97454.34;;;27.02;53.75
70921;BME280;58572;48.110;19.838;2023-07-31T11:40:28;97457.94;;;27.02;55.53
70921;BME280;58572;48.110;19.838;2023-07-31T11:42:57;97450.72;;;25.88;61.20
70921;BME280;58572;48.110;19.838;2023-07-31T11:45:27;97452.31;;;25.96;59.37
70921;BME280;58572;48.110;19.838;2023-07-31T11:47:56;97445.91;;;25.81;53.32
70921;BME280;58572;48.110;19.838;2023-07-31T11:50:24;97444.38;;;26.87;53.02
70921;BME280;58572;48.110;19.838;2023-07-31T11:52:55;97456.38;;;26.48;54.85
70921;BME280;58572;48.110;19.838;2023-07-31T11:55:24;97450.03;;;26.44;52.83
70921;BME280;58572;48.110;19.838;2023-07-31T11:57:52;97450.81;;;26.62;52.83
70921;BME280;58572;48.110;19.838;2023-07-31T12:00:21;97445.84;;;25.63;49.16
70921;BME280;58572;48.110;19.838;2023-07-31T12:02:50;97441.25;;;26.63;54.01
70921;BME280;58572;48.110;19.838;2023-07-31T12:05:17;97438.00;;;26.93;52.89
70921;BME280;58572;48.110;19.838;2023-07-31T12:07:47;97443.16;;;25.88;58.94
70921;BME280;58572;48.110;19.838;2023-07-31T12:10:33;97440.94;;;25.25;47.94
70921;BME280;58572;48.110;19.838;2023-07-31T12:13:02;97441.16;;;25.92;47.97
70921;BME280;58572;48.110;19.838;2023-07-31T12:15:39;97409.63;;;27.27;49.22
70921;BME280;58572;48.110;19.838;2023-07-31T12:18:09;97430.69;;;27.49;50.21
70921;BME280;58572;48.110;19.838;2023-07-31T12:20:41;97433.22;;;27.15;54.28
70921;BME280;58572;48.110;19.838;2023-07-31T12:23:19;97430.03;;;26.88;51.87
70921;BME280;58572;48.110;19.838;2023-07-31T12:26:00;97429.47;;;27.50;52.20
70921;BME280;58572;48.110;19.838;2023-07-31T12:28:28;97432.06;;;26.66;52.39
70921;BME280;58572;48.110;19.838;2023-07-31T12:30:57;97428.84;;;27.07;51.07
70921;BME280;58572;48.110;19.838;2023-07-31T12:33:31;97420.91;;;27.89;51.52
70921;BME280;58572;48.110;19.838;2023-07-31T12:36:00;97395.13;;;27.57;48.69
70921;BME280;58572;48.110;19.838;2023-07-31T12:38:29;97424.06;;;27.11;48.65
70921;BME280;58572;48.110;19.838;2023-07-31T12:40:56;97410.66;;;27.69;50.05
70921;BME280;58572;48.110;19.838;2023-07-31T12:43:24;97341.53;;;27.03;49.98
70921;BME280;58572;48.110;19.838;2023-07-31T12:45:51;97413.50;;;27.51;47.34
70921;BME280;58572;48.110;19.838;2023-07-31T12:48:19;97414.97;;;26.47;49.25
70921;BME280;58572;48.110;19.838;2023-07-31T12:50:46;97386.16;;;25.46;51.08
70921;BME280;58572;48.110;19.838;2023-07-31T12:53:12;97404.22;;;26.49;53.60
70921;BME280;58572;48.110;19.838;2023-07-31T12:55:41;97402.94;;;26.89;49.07
70921;BME280;58572;48.110;19.838;2023-07-31T12:58:08;97398.53;;;27.16;51.77
70921;BME280;58572;48.110;19.838;2023-07-31T13:00:35;97389.53;;;28.68;50.31